createdAt,value
2023-02-28T00:01:50.653Z,49.92
2023-02-28T00:04:18.036Z,50.00
2023-02-28T00:06:45.519Z,50.16
2023-02-28T00:09:12.752Z,50.06
2023-02-28T00:11:39.914Z,50.20
2023-02-28T00:14:07.050Z,50.00
2023-02-28T00:16:34.348Z,50.17
2023-02-28T00:19:01.806Z,49.98
2023-02-28T00:21:29.501Z,49.86
2023-02-28T00:23:56.912Z,50.28
2023-02-28T00:26:24.158Z,50.43
2023-02-28T00:28:53.640Z,50.60
2023-02-28T00:31:20.863Z,51.02
2023-02-28T00:33:48.109Z,50.80
2023-02-28T00:36:15.551Z,51.13
2023-02-28T00:38:42.924Z,50.88
2023-02-28T00:41:10.402Z,51.23
2023-02-28T00:43:39.935Z,51.16
2023-02-28T00:46:08.471Z,51.20
2023-02-28T00:48:36.033Z,51.36
2023-02-28T00:51:03.806Z,51.29
2023-02-28T00:53:31.244Z,51.27
2023-02-28T00:55:58.415Z,51.16
2023-02-28T00:58:26.074Z,51.15
2023-02-28T01:00:54.311Z,51.13
2023-02-28T01:03:22.719Z,51.21
2023-02-28T01:05:50.104Z,51.46
2023-02-28T01:08:17.530Z,51.40
2023-02-28T01:10:44.849Z,51.46
2023-02-28T01:13:13.579Z,51.27
2023-02-28T01:15:50.101Z,51.39
2023-02-28T01:18:17.397Z,51.47
2023-02-28T01:20:45.199Z,51.41
2023-02-28T01:23:12.366Z,51.79
2023-02-28T01:25:40.166Z,51.27
2023-02-28T01:28:07.620Z,51.72
2023-02-28T01:30:35.294Z,51.52
2023-02-28T01:33:03.212Z,51.54
2023-02-28T01:35:34.131Z,51.78
2023-02-28T01:38:15.739Z,51.52
2023-02-28T01:40:48.333Z,51.35
2023-02-28T01:43:43.829Z,51.20
2023-02-28T01:46:12.923Z,51.36
2023-02-28T01:49:06.198Z,51.02
2023-02-28T01:51:36.493Z,50.75
2023-02-28T01:54:11.752Z,50.35
2023-02-28T01:56:39.155Z,50.25
2023-02-28T01:59:06.521Z,50.26
2023-02-28T02:01:33.742Z,50.39
2023-02-28T02:04:05.045Z,50.26
2023-02-28T02:06:45.546Z,50.47
2023-02-28T02:09:13.684Z,50.33
2023-02-28T02:11:46.042Z,50.01
2023-02-28T02:14:53.743Z,50.51
2023-02-28T02:17:39.663Z,50.88
2023-02-28T02:20:21.867Z,51.21
2023-02-28T02:23:42.014Z,51.24
2023-02-28T02:26:42.872Z,51.28
2023-02-28T02:29:48.188Z,51.12
2023-02-28T02:32:33.390Z,50.77
2023-02-28T02:35:28.392Z,50.56
2023-02-28T02:38:20.003Z,50.81
2023-02-28T02:41:17.677Z,50.81
2023-02-28T02:44:17.450Z,50.37
2023-02-28T02:46:48.512Z,50.40
2023-02-28T02:49:31.848Z,50.18
2023-02-28T02:52:07.099Z,49.90
2023-02-28T02:54:41.208Z,49.98
2023-02-28T02:57:52.177Z,50.02
2023-02-28T03:00:26.558Z,49.97
2023-02-28T03:02:55.919Z,50.06
2023-02-28T03:05:31.267Z,49.85
2023-02-28T03:07:58.872Z,50.03
2023-02-28T03:10:45.791Z,50.33
2023-02-28T03:13:43.796Z,50.13
2023-02-28T03:16:30.220Z,50.27
2023-02-28T03:19:31.883Z,50.33
2023-02-28T03:22:32.957Z,50.15
2023-02-28T03:25:44.677Z,50.35
2023-02-28T03:28:30.621Z,50.52
2023-02-28T03:31:18.500Z,50.42
2023-02-28T03:33:50.921Z,50.65
2023-02-28T03:36:21.072Z,50.57
2023-02-28T03:38:59.126Z,51.01
2023-02-28T03:41:39.714Z,50.90
2023-02-28T03:44:33.529Z,50.27
2023-02-28T03:47:44.993Z,50.58
2023-02-28T03:50:21.506Z,51.17
2023-02-28T03:52:54.646Z,50.82
2023-02-28T03:55:23.034Z,51.21
2023-02-28T03:58:26.317Z,51.05
2023-02-28T04:01:25.932Z,51.05
2023-02-28T04:03:53.761Z,50.74
2023-02-28T04:06:23.759Z,50.76
2023-02-28T04:08:51.781Z,50.82
2023-02-28T04:11:28.831Z,51.10
2023-02-28T04:13:56.583Z,51.11
2023-02-28T04:16:34.442Z,51.32
2023-02-28T04:19:05.082Z,51.29
2023-02-28T04:21:35.907Z,51.05
2023-02-28T04:24:04.213Z,50.88
2023-02-28T04:26:33.434Z,51.07
2023-02-28T04:29:02.625Z,50.93
2023-02-28T04:31:30.392Z,51.09
2023-02-28T04:33:58.931Z,51.23
2023-02-28T04:36:26.463Z,51.29
2023-02-28T04:38:54.342Z,51.13
2023-02-28T04:41:22.379Z,51.25
2023-02-28T04:43:51.754Z,51.28
2023-02-28T04:46:20.058Z,51.42
2023-02-28T04:48:47.969Z,51.46
2023-02-28T04:51:17.450Z,51.55
2023-02-28T04:53:45.212Z,51.47
2023-02-28T04:56:17.733Z,51.43
2023-02-28T04:58:45.886Z,51.51
2023-02-28T05:01:29.469Z,51.19
2023-02-28T05:03:58.860Z,51.29
2023-02-28T05:06:29.616Z,51.48
2023-02-28T05:08:57.483Z,51.56
2023-02-28T05:11:31.485Z,51.51
2023-02-28T05:13:59.258Z,51.50
2023-02-28T05:16:26.891Z,51.69
2023-02-28T05:18:54.501Z,51.75
2023-02-28T05:21:33.089Z,51.99
2023-02-28T05:24:03.317Z,52.03
2023-02-28T05:26:31.391Z,51.79
2023-02-28T05:28:59.071Z,51.85
2023-02-28T05:31:26.846Z,51.96
2023-02-28T05:33:54.778Z,51.71
2023-02-28T05:36:22.792Z,51.74
2023-02-28T05:38:51.162Z,51.75
2023-02-28T05:41:19.934Z,52.09
2023-02-28T05:43:48.821Z,51.95
2023-02-28T05:46:16.832Z,52.16
2023-02-28T05:48:47.251Z,52.05
2023-02-28T05:51:14.828Z,52.00
2023-02-28T05:53:42.473Z,51.95
2023-02-28T05:56:10.101Z,51.95
2023-02-28T05:58:37.613Z,52.15
2023-02-28T06:01:33.662Z,52.10
2023-02-28T06:04:02.197Z,52.04
2023-02-28T06:06:30.040Z,51.94
2023-02-28T06:08:58.291Z,51.89
2023-02-28T06:11:26.267Z,51.67
2023-02-28T06:13:56.047Z,51.84
2023-02-28T06:16:24.208Z,51.80
2023-02-28T06:18:51.773Z,51.74
2023-02-28T06:21:19.710Z,51.70
2023-02-28T06:23:47.256Z,51.65
2023-02-28T06:26:14.929Z,51.63
2023-02-28T06:28:42.529Z,51.57
2023-02-28T06:31:16.667Z,51.35
2023-02-28T06:33:45.035Z,51.42
2023-02-28T06:36:13.779Z,51.30
2023-02-28T06:38:42.104Z,51.42
2023-02-28T06:41:10.456Z,51.72
2023-02-28T06:43:42.894Z,51.79
2023-02-28T06:46:14.125Z,51.55
2023-02-28T06:48:42.363Z,51.90
2023-02-28T06:51:13.341Z,51.61
2023-02-28T06:53:41.125Z,51.67
2023-02-28T06:56:11.487Z,51.72
2023-02-28T06:58:39.557Z,51.99
2023-02-28T07:01:08.729Z,52.01
2023-02-28T07:03:39.191Z,52.02
2023-02-28T07:06:07.607Z,52.28
2023-02-28T07:08:36.246Z,52.29
2023-02-28T07:11:04.744Z,51.99
2023-02-28T07:13:32.630Z,52.28
2023-02-28T07:16:07.363Z,52.12
2023-02-28T07:18:34.927Z,52.15
2023-02-28T07:21:07.907Z,52.09
2023-02-28T07:23:36.567Z,52.00
2023-02-28T07:26:05.128Z,51.82
2023-02-28T07:28:32.637Z,51.68
2023-02-28T07:31:06.234Z,51.63
2023-02-28T07:33:34.930Z,51.74
2023-02-28T07:36:09.004Z,51.63
2023-02-28T07:38:38.004Z,51.34
2023-02-28T07:41:05.684Z,51.11
2023-02-28T07:43:34.036Z,51.33
2023-02-28T07:46:11.026Z,51.19
2023-02-28T07:48:39.296Z,50.97
2023-02-28T07:51:07.379Z,50.99
2023-02-28T07:53:35.030Z,50.78
2023-02-28T07:56:03.582Z,50.77
2023-02-28T07:58:32.089Z,50.80
2023-02-28T08:01:07.584Z,50.74
2023-02-28T08:03:35.570Z,50.64
2023-02-28T08:06:04.892Z,50.76
2023-02-28T08:08:32.536Z,50.46
2023-02-28T08:11:04.544Z,50.30
2023-02-28T08:13:32.460Z,50.02
2023-02-28T08:16:02.627Z,49.75
2023-02-28T08:18:30.381Z,49.58
2023-02-28T08:20:58.014Z,49.85
2023-02-28T08:23:25.627Z,49.84
2023-02-28T08:25:57.637Z,49.05
2023-02-28T08:28:27.284Z,49.08
2023-02-28T08:30:55.412Z,49.13
2023-02-28T08:33:23.980Z,48.93
2023-02-28T08:35:54.762Z,48.97
2023-02-28T08:38:22.846Z,48.72
2023-02-28T08:40:50.717Z,48.51
2023-02-28T08:43:18.410Z,48.19
2023-02-28T08:45:46.030Z,48.30
2023-02-28T08:48:13.682Z,48.15
2023-02-28T08:50:41.228Z,48.15
2023-02-28T08:53:08.885Z,48.26
2023-02-28T08:55:36.794Z,48.08
2023-02-28T08:58:04.385Z,48.28
2023-02-28T09:00:31.965Z,47.63
2023-02-28T09:02:59.566Z,47.78
2023-02-28T09:05:27.180Z,47.44
2023-02-28T09:07:54.911Z,47.72
2023-02-28T09:10:22.536Z,47.81
2023-02-28T09:12:50.070Z,47.45
2023-02-28T09:15:17.680Z,47.52
2023-02-28T09:17:46.986Z,47.36
2023-02-28T09:20:16.660Z,47.43
2023-02-28T09:22:44.148Z,47.43
2023-02-28T09:25:11.613Z,47.15
2023-02-28T09:27:39.207Z,46.87
2023-02-28T09:30:07.551Z,46.85
2023-02-28T09:32:35.360Z,46.74
2023-02-28T09:35:02.924Z,46.77
2023-02-28T09:37:30.829Z,46.73
2023-02-28T09:39:58.631Z,46.33
2023-02-28T09:42:33.096Z,45.91
2023-02-28T09:45:07.024Z,45.23
2023-02-28T09:47:45.732Z,45.41
2023-02-28T09:50:42.672Z,45.72
2023-02-28T09:53:35.845Z,45.41
2023-02-28T09:56:06.374Z,45.46
2023-02-28T09:58:43.222Z,45.03
2023-02-28T10:01:42.374Z,45.16
2023-02-28T10:04:18.871Z,45.14
2023-02-28T10:06:53.983Z,44.44
2023-02-28T10:09:30.329Z,44.10
2023-02-28T10:12:04.691Z,44.38
2023-02-28T10:14:35.329Z,44.41
2023-02-28T10:17:49.425Z,43.87
2023-02-28T10:20:25.842Z,43.65
2023-02-28T10:23:43.570Z,43.88
2023-02-28T10:26:17.949Z,43.72
2023-02-28T10:28:46.490Z,43.47
2023-02-28T10:31:20.554Z,42.79
2023-02-28T10:33:49.376Z,43.31
2023-02-28T10:36:20.703Z,42.83
2023-02-28T10:38:49.304Z,42.45
2023-02-28T10:41:43.134Z,41.77
2023-02-28T10:44:24.542Z,42.70
2023-02-28T10:46:52.661Z,42.70
2023-02-28T10:49:27.518Z,42.48
2023-02-28T10:52:02.004Z,42.57
2023-02-28T10:54:36.947Z,42.15
2023-02-28T10:57:23.233Z,41.71
2023-02-28T11:00:16.273Z,41.97
2023-02-28T11:02:43.606Z,42.20
2023-02-28T11:05:31.818Z,41.45
2023-02-28T11:08:16.884Z,41.14
2023-02-28T11:10:58.972Z,41.26
2023-02-28T11:13:37.495Z,40.92
2023-02-28T11:16:13.125Z,40.85
2023-02-28T11:18:56.385Z,39.87
2023-02-28T11:21:56.111Z,39.86
2023-02-28T11:24:34.714Z,40.09
2023-02-28T11:27:03.145Z,39.55
2023-02-28T11:29:33.727Z,39.67
2023-02-28T11:32:14.565Z,38.42
2023-02-28T11:34:43.926Z,36.64
2023-02-28T11:37:19.736Z,34.94
2023-02-28T11:39:47.676Z,31.30
2023-02-28T11:42:35.648Z,28.27
2023-02-28T11:45:39.250Z,28.00
2023-02-28T11:48:17.658Z,26.44
2023-02-28T11:51:02.745Z,26.25
2023-02-28T11:53:52.210Z,26.45
2023-02-28T11:56:39.573Z,25.47
2023-02-28T11:59:30.438Z,24.68
2023-02-28T12:06:26.945Z,24.34
2023-02-28T12:09:42.721Z,24.01
2023-02-28T12:12:26.581Z,23.69
2023-02-28T12:15:19.387Z,23.24
2023-02-28T12:18:18.300Z,23.01
2023-02-28T12:20:55.230Z,23.30
2023-02-28T12:23:47.976Z,23.81
2023-02-28T12:26:45.228Z,23.71
2023-02-28T12:29:35.047Z,24.12
2023-02-28T12:32:36.120Z,24.86
2023-02-28T12:35:20.363Z,26.35
2023-02-28T12:38:05.426Z,26.90
2023-02-28T12:41:04.080Z,27.90
2023-02-28T12:43:45.514Z,29.02
2023-02-28T12:46:29.738Z,29.61
2023-02-28T12:49:00.264Z,30.76
2023-02-28T12:51:30.074Z,31.54
2023-02-28T12:54:33.460Z,32.28
2023-02-28T12:57:10.341Z,33.12
2023-02-28T13:00:00.988Z,32.86
2023-02-28T13:03:07.528Z,32.61
2023-02-28T13:05:43.339Z,32.89
2023-02-28T13:08:29.173Z,33.23
2023-02-28T13:10:56.467Z,32.90
2023-02-28T13:13:28.653Z,32.87
2023-02-28T13:16:11.725Z,32.88
2023-02-28T13:18:45.388Z,33.00
2023-02-28T13:21:31.540Z,32.51
2023-02-28T13:24:06.589Z,32.83
2023-02-28T13:26:39.606Z,33.04
2023-02-28T13:29:12.573Z,31.93
2023-02-28T13:32:04.376Z,31.24
2023-02-28T13:34:31.656Z,32.01
2023-02-28T13:37:23.767Z,32.06
2023-02-28T13:39:56.279Z,32.01
2023-02-28T13:42:23.564Z,31.81
2023-02-28T13:45:03.107Z,30.82
2023-02-28T13:47:53.416Z,29.98
2023-02-28T13:50:27.701Z,29.58
2023-02-28T13:53:15.914Z,29.23
2023-02-28T13:56:11.121Z,28.45
2023-02-28T13:59:27.467Z,28.61
2023-02-28T14:02:41.686Z,28.58
2023-02-28T14:05:23.387Z,28.65
2023-02-28T14:07:56.804Z,28.34
2023-02-28T14:10:33.616Z,28.88
2023-02-28T14:13:56.752Z,28.47
2023-02-28T14:16:44.992Z,28.45
2023-02-28T14:19:27.337Z,29.19
2023-02-28T14:22:33.516Z,29.29
2023-02-28T14:25:09.920Z,29.23
2023-02-28T14:28:32.820Z,29.21
2023-02-28T14:31:05.899Z,29.22
2023-02-28T14:34:04.428Z,29.19
2023-02-28T14:36:38.925Z,28.86
2023-02-28T14:39:28.739Z,28.47
2023-02-28T14:41:56.226Z,28.31
2023-02-28T14:44:28.944Z,28.22
2023-02-28T14:47:02.307Z,28.41
2023-02-28T14:49:48.402Z,28.65
2023-02-28T14:52:32.203Z,28.96
2023-02-28T14:55:06.346Z,28.74
2023-02-28T14:57:50.905Z,29.21
2023-02-28T15:00:29.377Z,29.47
2023-02-28T15:02:59.429Z,29.09
2023-02-28T15:05:36.005Z,29.27
2023-02-28T15:08:24.449Z,29.54
2023-02-28T15:11:18.607Z,31.25
2023-02-28T15:13:50.223Z,32.39
2023-02-28T15:16:30.708Z,33.53
2023-02-28T15:19:29.306Z,34.39
2023-02-28T15:22:15.236Z,35.56
2023-02-28T15:24:52.906Z,37.10
2023-02-28T15:27:29.396Z,38.15
2023-02-28T15:30:01.672Z,38.87
2023-02-28T15:32:34.208Z,39.04
2023-02-28T15:35:25.408Z,39.28
2023-02-28T15:38:12.194Z,39.60
2023-02-28T15:40:46.258Z,40.05
2023-02-28T15:43:20.540Z,40.78
2023-02-28T15:45:54.251Z,40.49
2023-02-28T15:48:30.544Z,40.54
2023-02-28T15:51:07.067Z,40.69
2023-02-28T15:53:42.321Z,40.82
2023-02-28T15:56:54.638Z,41.26
2023-02-28T15:59:29.012Z,41.41
2023-02-28T16:02:16.117Z,41.21
2023-02-28T16:05:19.084Z,41.25
2023-02-28T16:07:46.489Z,41.04
2023-02-28T16:10:18.818Z,41.07
2023-02-28T16:12:46.104Z,40.95
2023-02-28T16:15:30.441Z,41.25
2023-02-28T16:18:02.619Z,41.47
2023-02-28T16:20:32.345Z,41.24
2023-02-28T16:23:02.402Z,41.22
2023-02-28T16:25:40.649Z,41.66
2023-02-28T16:28:39.445Z,41.89
2023-02-28T16:31:08.702Z,42.09
2023-02-28T16:33:36.208Z,42.24
2023-02-28T16:36:03.938Z,42.38
2023-02-28T16:38:31.151Z,42.65
2023-02-28T16:41:01.497Z,42.70
2023-02-28T16:43:30.796Z,42.99
2023-02-28T16:46:01.135Z,43.08
2023-02-28T16:48:28.846Z,43.16
2023-02-28T16:50:56.076Z,43.45
2023-02-28T16:53:23.227Z,43.41
2023-02-28T16:55:50.566Z,43.39
2023-02-28T16:58:18.355Z,43.73
2023-02-28T17:00:45.904Z,43.49
2023-02-28T17:03:33.022Z,43.42
2023-02-28T17:06:01.609Z,43.40
2023-02-28T17:08:28.974Z,44.35
2023-02-28T17:10:56.836Z,44.24
2023-02-28T17:13:24.395Z,44.03
2023-02-28T17:15:52.385Z,43.84
2023-02-28T17:18:21.788Z,44.42
2023-02-28T17:20:50.045Z,44.61
2023-02-28T17:23:17.799Z,44.63
2023-02-28T17:29:58.958Z,45.07
2023-02-28T17:32:27.450Z,44.82
2023-02-28T17:34:55.645Z,44.85
2023-02-28T17:37:22.815Z,44.93
2023-02-28T17:39:50.039Z,44.96
2023-02-28T17:42:17.275Z,45.24
2023-02-28T17:44:44.641Z,45.24
2023-02-28T17:47:13.691Z,45.27
2023-02-28T17:49:41.300Z,45.42
2023-02-28T17:52:09.533Z,45.77
2023-02-28T17:54:36.906Z,45.45
2023-02-28T17:57:04.375Z,45.62
2023-02-28T17:59:31.680Z,45.73
2023-02-28T18:01:59.138Z,45.71
2023-02-28T18:04:26.522Z,45.54
2023-02-28T18:06:55.128Z,45.83
2023-02-28T18:09:24.089Z,46.27
2023-02-28T18:11:55.060Z,45.98
2023-02-28T18:14:27.402Z,46.31
2023-02-28T18:16:59.832Z,45.73
2023-02-28T18:19:27.503Z,46.14
2023-02-28T18:21:55.246Z,46.12
2023-02-28T18:24:27.621Z,46.30
2023-02-28T18:26:54.877Z,46.16
2023-02-28T18:29:26.243Z,46.21
2023-02-28T18:31:56.125Z,46.13
2023-02-28T18:34:25.379Z,46.37
2023-02-28T18:36:53.893Z,46.31
2023-02-28T18:39:21.638Z,46.08
2023-02-28T18:41:48.870Z,46.33
2023-02-28T18:44:20.944Z,46.33
2023-02-28T18:46:50.685Z,46.38
2023-02-28T18:49:18.657Z,46.83
2023-02-28T18:51:46.217Z,46.77
2023-02-28T18:54:16.641Z,46.94
2023-02-28T18:56:44.248Z,46.81
2023-02-28T18:59:12.215Z,46.84
2023-02-28T19:01:40.073Z,47.12
2023-02-28T19:04:07.411Z,47.28
2023-02-28T19:06:35.329Z,47.28
2023-02-28T19:09:04.233Z,47.00
2023-02-28T19:11:32.415Z,47.27
2023-02-28T19:13:59.865Z,47.38
2023-02-28T19:16:28.475Z,47.50
2023-02-28T19:18:56.433Z,47.35
2023-02-28T19:21:25.381Z,47.53
2023-02-28T19:23:53.269Z,47.81
2023-02-28T19:26:24.941Z,47.67
2023-02-28T19:28:52.776Z,47.82
2023-02-28T19:31:24.524Z,47.87
2023-02-28T19:33:52.401Z,48.05
2023-02-28T19:36:21.934Z,48.01
2023-02-28T19:38:50.152Z,47.96
2023-02-28T19:41:19.230Z,47.88
2023-02-28T19:43:47.164Z,47.88
2023-02-28T19:46:15.228Z,48.29
2023-02-28T19:48:43.017Z,48.03
2023-02-28T19:51:13.150Z,48.22
2023-02-28T19:53:42.851Z,47.93
2023-02-28T19:56:10.606Z,47.62
2023-02-28T19:58:39.160Z,47.67
2023-02-28T20:01:14.759Z,47.72
2023-02-28T20:03:43.026Z,48.05
2023-02-28T20:06:12.376Z,47.97
2023-02-28T20:08:40.185Z,47.59
2023-02-28T20:11:12.354Z,47.56
2023-02-28T20:13:40.160Z,47.93
2023-02-28T20:16:11.524Z,48.04
2023-02-28T20:18:41.053Z,48.25
2023-02-28T20:21:09.883Z,47.65
2023-02-28T20:23:41.724Z,47.98
2023-02-28T20:26:10.071Z,47.88
2023-02-28T20:28:38.447Z,47.77
2023-02-28T20:31:17.507Z,47.30
2023-02-28T20:33:46.967Z,47.12
2023-02-28T20:36:15.585Z,47.52
2023-02-28T20:38:43.339Z,47.68
2023-02-28T20:41:11.152Z,47.40
2023-02-28T20:43:39.432Z,47.61
2023-02-28T20:46:06.681Z,47.42
2023-02-28T20:48:35.261Z,47.16
2023-02-28T20:51:03.630Z,47.08
2023-02-28T20:53:32.318Z,47.00
2023-02-28T20:56:09.984Z,46.81
2023-02-28T20:58:38.548Z,47.08
2023-02-28T21:01:25.517Z,47.16
2023-02-28T21:04:01.029Z,47.08
2023-02-28T21:06:42.894Z,47.12
2023-02-28T21:09:14.172Z,47.08
2023-02-28T21:11:42.527Z,46.92
2023-02-28T21:14:15.797Z,47.16
2023-02-28T21:16:43.740Z,47.08
2023-02-28T21:19:11.824Z,46.98
2023-02-28T21:21:43.569Z,47.13
2023-02-28T21:24:13.525Z,47.05
2023-02-28T21:26:44.126Z,47.10
2023-02-28T21:29:13.577Z,47.06
2023-02-28T21:31:41.965Z,47.61
2023-02-28T21:34:12.212Z,47.65
2023-02-28T21:36:43.003Z,47.70
2023-02-28T21:39:22.684Z,47.79
2023-02-28T21:41:50.127Z,47.29
2023-02-28T21:44:17.431Z,47.21
2023-02-28T21:46:47.507Z,47.14
2023-02-28T21:49:16.147Z,47.05
2023-02-28T21:51:44.139Z,47.19
2023-02-28T21:54:12.079Z,47.27
2023-02-28T21:56:39.579Z,47.07
2023-02-28T21:59:06.963Z,46.95
2023-02-28T22:01:39.868Z,47.14
2023-02-28T22:04:10.122Z,47.30
2023-02-28T22:06:41.065Z,47.27
2023-02-28T22:09:10.424Z,47.41
2023-02-28T22:11:39.842Z,47.69
2023-02-28T22:14:12.085Z,47.51
2023-02-28T22:16:51.250Z,47.42
2023-02-28T22:19:22.119Z,47.84
2023-02-28T22:21:50.034Z,47.80
2023-02-28T22:24:17.914Z,47.75
2023-02-28T22:26:45.637Z,47.54
2023-02-28T22:29:12.929Z,47.32
2023-02-28T22:31:40.667Z,47.40
2023-02-28T22:34:11.862Z,47.82
2023-02-28T22:36:42.761Z,48.06
2023-02-28T22:39:10.635Z,47.92
2023-02-28T22:41:38.965Z,48.15
2023-02-28T22:44:07.531Z,47.89
2023-02-28T22:46:36.635Z,47.88
2023-02-28T22:49:06.283Z,48.47
2023-02-28T22:51:35.128Z,48.43
2023-02-28T22:54:03.546Z,47.94
2023-02-28T22:56:31.967Z,48.14
2023-02-28T22:59:01.223Z,48.32
2023-02-28T23:01:33.603Z,48.40
2023-02-28T23:04:01.573Z,48.24
2023-02-28T23:06:35.848Z,48.35
2023-02-28T23:09:08.311Z,48.31
2023-02-28T23:11:42.915Z,48.56
2023-02-28T23:14:12.681Z,48.28
2023-02-28T23:16:45.001Z,48.52
2023-02-28T23:19:17.367Z,48.38
2023-02-28T23:21:46.313Z,48.99
2023-02-28T23:24:16.855Z,48.63
2023-02-28T23:26:49.139Z,48.71
2023-02-28T23:29:18.896Z,48.40
2023-02-28T23:31:46.369Z,48.52
2023-02-28T23:34:14.781Z,48.58
2023-02-28T23:36:42.291Z,48.66
2023-02-28T23:39:09.562Z,48.50
2023-02-28T23:41:36.795Z,48.21
2023-02-28T23:44:04.036Z,48.34
2023-02-28T23:46:31.720Z,48.22
2023-02-28T23:48:59.905Z,48.28
2023-02-28T23:51:27.157Z,48.46
2023-02-28T23:53:54.421Z,48.76
2023-02-28T23:56:24.866Z,48.63
2023-02-28T23:58:52.229Z,48.97
